Terminal Aerodrome Forecast
Issued by NWS

Home | Current Version | Previous Version | Text Only | Print | Product List | Glossary On
Versions: 1 2 3 4 5 6 7 8 9 10 11 12 13 14 15 16 17 18 19 20
422
FTAK31 PAJN 040104 AAA
TAFAKT
TAF AMD
PAKT 040104Z 0401/0424 13009KT P6SM -SHRA SCT015 BKN040 BKN080
     FM041000 14004KT P6SM VCSH OVC080
     FM041700 14006KT P6SM SCT080
      AMD LTD TO CLD VIS AND WIND 0406/0415=

USA.gov is the U.S. government's official web portal to all federal, state and local government web resources and services.